Time;durP1;ratioP1;P1;durP2;ratioP2;P2;SDS_P1;SDS_P2;PMS_P1;PMS_P2;Temp;Humidity;BMP_temperature;BMP_pressure;BME280_temperature;BME280_humidity;BME280_pressure;Samples;Min_cycle;Max_cycle;Signal;HPM_P1;HPM_P2
2021/05/16 00:01:17;;;;;;;3.70;1.77;;;;;;;8.01;80.41;91863.38;4954349;28;20043;-76
2021/05/16 00:03:42;;;;;;;3.95;1.73;;;;;;;7.99;80.86;91875.16;4972004;28;20102;-76
2021/05/16 00:06:08;;;;;;;2.72;1.60;;;;;;;7.98;80.27;91879.59;4971648;28;20163;-76
2021/05/16 00:08:34;;;;;;;2.80;1.60;;;;;;;7.99;80.11;91878.53;4958437;28;20053;-76
2021/05/16 00:11:01;;;;;;;2.50;1.70;;;;;;;7.97;79.88;91880.66;4952606;29;20103;-75
2021/05/16 00:13:26;;;;;;;3.58;1.90;;;;;;;7.96;80.16;91871.28;4953160;29;20139;-76
2021/05/16 00:15:53;;;;;;;6.03;1.88;;;;;;;7.95;80.47;91874.16;4967545;28;20126;-76
2021/05/16 00:18:18;;;;;;;2.08;1.60;;;;;;;7.95;80.49;91868.94;4961710;28;20117;-76
2021/05/16 00:20:45;;;;;;;3.22;1.90;;;;;;;7.96;80.45;91866.06;4974319;28;20133;-75
2021/05/16 00:23:11;;;;;;;3.17;1.88;;;;;;;7.95;81.04;91864.53;4961903;28;20058;-77
2021/05/16 00:25:38;;;;;;;3.28;1.83;;;;;;;7.98;80.90;91869.16;4971976;28;20559;-75
2021/05/16 00:28:04;;;;;;;4.50;1.70;;;;;;;7.99;80.59;91856.91;4938271;28;20042;-74
2021/05/16 00:30:30;;;;;;;2.88;1.80;;;;;;;7.98;80.19;91856.13;4954478;28;20038;-77
2021/05/16 00:32:57;;;;;;;2.78;1.75;;;;;;;7.99;80.01;91867.31;4971101;28;20051;-75
2021/05/16 00:35:27;;;;;;;2.90;1.67;;;;;;;7.99;80.79;91868.09;4971480;28;20039;-74
2021/05/16 00:37:53;;;;;;;3.85;1.83;;;;;;;8.00;81.49;91874.88;4972401;28;20046;-75
2021/05/16 00:40:19;;;;;;;3.08;1.55;;;;;;;8.00;80.45;91861.84;4971075;28;20042;-75
2021/05/16 00:42:45;;;;;;;4.10;1.65;;;;;;;8.02;80.59;91848.53;4990645;28;20050;-75
2021/05/16 00:47:54;;;;;;;2.90;1.63;;;;;;;7.98;80.95;91852.75;4969212;28;20069;-75
2021/05/16 00:50:23;;;;;;;2.30;1.50;;;;;;;7.94;79.79;91849.94;4971093;28;20066;-75
2021/05/16 00:52:50;;;;;;;2.65;1.60;;;;;;;7.92;78.86;91858.06;4952077;29;20039;-75
2021/05/16 00:55:17;;;;;;;2.85;1.52;;;;;;;7.90;78.61;91864.59;4960951;28;20425;-76
2021/05/16 00:57:44;;;;;;;2.55;1.70;;;;;;;7.87;80.30;91867.78;4960168;28;20081;-76
2021/05/16 01:00:13;;;;;;;2.53;1.70;;;;;;;7.83;80.78;91864.19;4949659;28;20044;-75
2021/05/16 01:02:39;;;;;;;2.88;1.67;;;;;;;7.83;81.21;91851.16;4968215;28;20485;-76
2021/05/16 01:05:07;;;;;;;3.20;1.70;;;;;;;7.80;80.91;91838.69;4982751;28;20125;-74
2021/05/16 01:07:34;;;;;;;4.00;1.83;;;;;;;7.76;80.92;91838.47;4972648;28;20050;-75
2021/05/16 01:10:01;;;;;;;2.78;1.67;;;;;;;7.77;81.16;91844.47;4953814;28;20046;-75
2021/05/16 01:12:38;;;;;;;4.00;1.77;;;;;;;7.74;81.20;91847.66;4971074;28;20027;-75
2021/05/16 01:15:05;;;;;;;2.60;1.65;;;;;;;7.68;81.03;91847.72;4952993;28;20066;-76
2021/05/16 01:17:31;;;;;;;2.45;1.55;;;;;;;7.65;81.03;91852.72;4977211;28;20525;-75
2021/05/16 01:19:57;;;;;;;2.95;1.60;;;;;;;7.62;81.19;91861.13;4971855;28;20414;-76
2021/05/16 01:22:23;;;;;;;3.78;2.00;;;;;;;7.62;80.75;91855.91;4937751;28;20031;-76
2021/05/16 01:24:49;;;;;;;3.35;1.90;;;;;;;7.60;80.59;91856.16;4937826;28;20046;-76
2021/05/16 01:27:16;;;;;;;4.32;1.70;;;;;;;7.62;80.08;91846.25;4958904;28;20100;-76
2021/05/16 01:29:43;;;;;;;3.13;1.67;;;;;;;7.64;79.34;91849.34;4990879;28;20051;-76
2021/05/16 01:32:11;;;;;;;2.53;1.60;;;;;;;7.67;79.44;91840.97;4970586;28;20038;-76
2021/05/16 01:34:39;;;;;;;2.50;1.40;;;;;;;7.72;77.71;91837.50;4961726;28;20505;-75
2021/05/16 01:37:06;;;;;;;5.57;1.70;;;;;;;7.78;78.57;91833.00;4971917;28;20039;-75
2021/05/16 01:39:33;;;;;;;2.75;1.50;;;;;;;7.65;79.50;91830.03;4963161;28;20043;-75
2021/05/16 01:41:59;;;;;;;3.58;1.63;;;;;;;7.57;79.77;91835.91;4970273;28;20409;-75
2021/05/16 01:44:26;;;;;;;3.00;1.70;;;;;;;7.50;80.20;91838.09;4970260;28;20074;-76
2021/05/16 01:46:52;;;;;;;1.67;1.35;;;;;;;7.42;80.86;91833.53;4952892;28;20146;-76
2021/05/16 01:49:18;;;;;;;3.17;1.80;;;;;;;7.36;80.98;91825.00;4973239;28;20154;-76
2021/05/16 01:51:44;;;;;;;2.80;1.70;;;;;;;7.28;81.37;91825.66;4963260;28;20172;-75
2021/05/16 01:54:10;;;;;;;2.58;1.70;;;;;;;7.21;81.41;91828.59;4970655;28;20081;-76
2021/05/16 01:56:36;;;;;;;3.50;1.60;;;;;;;7.14;81.63;91835.97;4986045;28;20148;-75
2021/05/16 01:59:03;;;;;;;3.00;1.67;;;;;;;7.05;81.91;91824.66;4957892;28;20510;-75
2021/05/16 02:01:29;;;;;;;2.40;1.38;;;;;;;6.98;81.31;91816.38;4950554;28;20042;-75
2021/05/16 02:04:01;;;;;;;2.58;1.50;;;;;;;6.91;81.82;91823.78;4938558;28;20048;-75
2021/05/16 02:06:27;;;;;;;3.53;1.50;;;;;;;6.81;81.62;91822.84;4970300;28;20482;-75
2021/05/16 02:08:54;;;;;;;1.95;1.40;;;;;;;6.77;81.70;91814.03;4967768;28;20156;-75
2021/05/16 02:11:27;;;;;;;2.92;1.50;;;;;;;6.70;81.77;91818.81;4952176;28;20058;-75
2021/05/16 02:13:57;;;;;;;3.20;1.60;;;;;;;6.64;82.10;91819.91;4968636;28;20572;-75
2021/05/16 02:16:23;;;;;;;2.70;1.50;;;;;;;6.61;82.05;91810.06;4958269;28;20174;-76
2021/05/16 02:18:55;;;;;;;4.28;1.55;;;;;;;6.57;82.18;91809.84;4950916;28;20534;-77
2021/05/16 02:21:26;;;;;;;3.13;1.40;;;;;;;6.53;81.69;91818.47;4947633;28;20050;-76
2021/05/16 02:23:52;;;;;;;2.42;1.40;;;;;;;6.44;82.02;91826.91;4956986;28;20058;-76
2021/05/16 02:26:26;;;;;;;3.55;1.70;;;;;;;6.41;82.79;91826.66;4956347;28;20046;-77
2021/05/16 02:28:52;;;;;;;2.20;1.60;;;;;;;6.36;82.45;91822.28;4955593;28;20379;-76
2021/05/16 02:31:19;;;;;;;3.65;1.55;;;;;;;6.34;81.82;91836.63;4956242;28;20043;-76
2021/05/16 02:33:46;;;;;;;3.10;1.45;;;;;;;6.30;82.22;91839.00;4974033;28;20183;-76
2021/05/16 02:36:12;;;;;;;1.88;1.30;;;;;;;6.26;82.39;91835.41;4959136;28;20121;-77
2021/05/16 02:38:38;;;;;;;1.90;1.40;;;;;;;6.22;82.65;91827.38;4975060;28;20053;-76
2021/05/16 02:41:04;;;;;;;2.25;1.50;;;;;;;6.21;82.45;91838.84;4988915;28;20065;-76
2021/05/16 02:43:30;;;;;;;2.85;1.58;;;;;;;6.18;82.55;91844.56;4955929;28;20510;-76
2021/05/16 02:45:55;;;;;;;2.45;1.58;;;;;;;6.13;82.63;91838.66;4954513;28;20063;-76
2021/05/16 02:48:22;;;;;;;3.25;1.83;;;;;;;6.14;83.61;91845.38;4957163;28;20043;-76
2021/05/16 02:50:48;;;;;;;2.50;1.55;;;;;;;6.10;83.81;91852.19;4930238;29;20070;-76
2021/05/16 02:53:21;;;;;;;3.30;1.80;;;;;;;6.04;83.62;91860.03;4953220;29;20055;-76
2021/05/16 02:56:01;;;;;;;2.30;1.50;;;;;;;6.04;83.19;91849.63;4969456;28;20106;-76
2021/05/16 02:58:27;;;;;;;2.42;1.50;;;;;;;6.08;83.92;91851.66;4955562;28;20528;-76
2021/05/16 03:00:57;;;;;;;2.70;1.70;;;;;;;6.05;83.87;91851.16;4972513;28;20041;-76
2021/05/16 03:03:22;;;;;;;2.88;1.55;;;;;;;5.99;83.75;91841.09;4971117;28;20035;-76
2021/05/16 03:05:52;;;;;;;3.00;1.60;;;;;;;5.92;83.75;91838.00;4950363;29;20506;-76
2021/05/16 03:08:20;;;;;;;2.30;1.60;;;;;;;5.88;83.84;91845.59;4947937;28;20058;-76
2021/05/16 03:10:46;;;;;;;2.70;1.50;;;;;;;5.79;84.58;91832.41;4956116;28;20493;-76
2021/05/16 03:13:12;;;;;;;2.70;1.50;;;;;;;5.75;84.48;91812.44;4930672;29;20047;-76
2021/05/16 03:15:38;;;;;;;2.90;1.60;;;;;;;5.70;84.46;91813.25;4956194;28;20105;-76
2021/05/16 03:18:05;;;;;;;2.78;1.60;;;;;;;5.66;84.30;91822.63;4954762;28;20053;-77
2021/05/16 03:20:32;;;;;;;3.08;1.50;;;;;;;5.63;84.20;91836.19;4951045;29;20462;-76
2021/05/16 03:22:58;;;;;;;3.78;1.50;;;;;;;5.62;84.17;91830.19;5002061;28;20145;-76
2021/05/16 03:25:26;;;;;;;3.47;1.40;;;;;;;5.63;83.93;91834.34;4973793;28;20043;-76
2021/05/16 03:27:52;;;;;;;2.33;1.50;;;;;;;5.62;84.10;91837.97;4972259;28;20057;-76
2021/05/16 03:30:18;;;;;;;3.33;1.50;;;;;;;5.62;84.12;91837.19;4990414;28;20034;-77
2021/05/16 03:32:44;;;;;;;2.17;1.40;;;;;;;5.63;84.26;91826.56;4992211;28;20134;-76
2021/05/16 03:35:11;;;;;;;4.43;1.50;;;;;;;5.68;84.56;91824.97;4957613;28;20510;-76
2021/05/16 03:37:37;;;;;;;2.58;1.52;;;;;;;5.70;84.23;91812.50;4972129;28;20501;-76
2021/05/16 03:40:05;;;;;;;3.15;1.48;;;;;;;5.66;83.86;91806.28;4972215;28;20039;-76
2021/05/16 03:42:32;;;;;;;2.00;1.48;;;;;;;5.69;84.13;91805.72;4973191;28;20477;-76
2021/05/16 03:44:58;;;;;;;2.83;1.55;;;;;;;5.66;83.76;91808.88;4967747;28;20121;-76
2021/05/16 03:47:24;;;;;;;5.07;1.50;;;;;;;5.67;83.28;91805.22;4969703;28;20145;-76
2021/05/16 03:49:49;;;;;;;3.97;1.30;;;;;;;5.68;83.02;91802.38;4955924;28;20320;-76
2021/05/16 03:52:19;;;;;;;1.60;1.30;;;;;;;5.69;82.80;91805.72;4972154;28;20035;-76
2021/05/16 03:54:49;;;;;;;1.85;1.30;;;;;;;5.70;83.42;91809.91;4972386;28;20482;-76
2021/05/16 03:57:16;;;;;;;2.00;1.30;;;;;;;5.72;83.15;91811.16;4954862;28;20050;-76
2021/05/16 03:59:42;;;;;;;2.25;1.30;;;;;;;5.76;83.04;91813.97;4972431;28;20520;-76
2021/05/16 04:02:08;;;;;;;2.05;1.30;;;;;;;5.83;83.06;91814.44;4950004;29;20043;-76
2021/05/16 04:04:33;;;;;;;2.00;1.35;;;;;;;5.90;82.92;91817.53;4939597;28;20043;-76
2021/05/16 04:06:59;;;;;;;5.25;1.63;;;;;;;5.96;83.26;91832.03;4972372;28;20094;-76
2021/05/16 04:09:25;;;;;;;2.45;1.50;;;;;;;6.04;83.10;91820.28;4966334;28;20095;-76
2021/05/16 04:11:50;;;;;;;2.38;1.60;;;;;;;6.09;82.79;91811.66;4919900;29;20043;-76
2021/05/16 04:14:17;;;;;;;2.28;1.40;;;;;;;6.28;81.97;91802.09;4920665;28;20482;-77
2021/05/16 04:16:42;;;;;;;1.10;1.00;;;;;;;6.33;81.82;91809.88;4972236;28;20158;-77
2021/05/16 04:19:08;;;;;;;2.65;1.50;;;;;;;6.42;82.13;91813.41;4971246;28;20134;-76
2021/05/16 04:21:34;;;;;;;3.05;1.55;;;;;;;6.45;81.90;91802.44;4972081;28;20053;-76
2021/05/16 04:23:59;;;;;;;2.95;1.55;;;;;;;6.51;81.38;91810.19;4953923;28;20138;-76
2021/05/16 04:26:25;;;;;;;2.42;1.40;;;;;;;6.55;81.14;91816.38;4971450;28;20043;-76
2021/05/16 04:28:51;;;;;;;2.53;1.40;;;;;;;6.60;81.04;91811.13;4972197;28;20440;-76
2021/05/16 04:31:17;;;;;;;2.67;1.45;;;;;;;6.66;80.82;91815.22;4971984;28;20031;-76
2021/05/16 04:33:42;;;;;;;3.20;1.60;;;;;;;6.71;80.84;91814.38;4971278;28;20093;-76
2021/05/16 04:36:08;;;;;;;3.78;1.30;;;;;;;6.77;80.57;91815.88;4954422;28;20051;-76
2021/05/16 04:38:34;;;;;;;2.03;1.40;;;;;;;6.85;80.27;91808.22;4970427;28;20129;-76
2021/05/16 04:40:59;;;;;;;2.75;1.35;;;;;;;6.94;79.99;91805.00;4954025;28;20045;-76
2021/05/16 04:43:25;;;;;;;3.78;1.20;;;;;;;7.00;79.70;91807.28;4936278;28;20043;-76
2021/05/16 04:45:51;;;;;;;1.63;1.13;;;;;;;7.07;79.04;91810.31;4950929;28;20469;-76
2021/05/16 04:48:16;;;;;;;1.65;1.10;;;;;;;7.14;78.82;91806.56;4971283;28;20047;-76
2021/05/16 04:50:42;;;;;;;1.67;1.20;;;;;;;7.21;79.12;91807.78;4971282;28;20042;-76
2021/05/16 04:53:07;;;;;;;1.60;1.27;;;;;;;7.30;78.67;91803.47;4970413;28;20034;-76
2021/05/16 04:55:33;;;;;;;1.92;1.20;;;;;;;7.41;78.42;91813.75;4971003;28;20051;-76
2021/05/16 04:57:59;;;;;;;2.50;1.20;;;;;;;7.52;77.89;91812.56;4975054;28;20034;-77
2021/05/16 05:00:24;;;;;;;4.28;1.40;;;;;;;7.65;78.50;91822.22;4990385;28;20046;-76
2021/05/16 05:02:50;;;;;;;3.33;1.30;;;;;;;7.81;77.72;91835.03;4989383;28;20064;-75
2021/05/16 05:05:17;;;;;;;3.38;1.70;;;;;;;7.85;77.66;91846.44;4972344;28;20034;-76
2021/05/16 05:07:43;;;;;;;2.83;1.30;;;;;;;7.97;77.62;91851.19;4972592;28;20097;-76
2021/05/16 05:10:10;;;;;;;2.35;1.45;;;;;;;8.07;76.82;91830.97;4974748;28;20051;-76
2021/05/16 05:12:36;;;;;;;1.60;1.20;;;;;;;8.25;75.91;91839.03;4970584;28;20082;-77
2021/05/16 05:15:03;;;;;;;2.50;1.38;;;;;;;8.45;75.05;91840.53;4968704;28;20508;-77
2021/05/16 05:17:29;;;;;;;2.92;1.60;;;;;;;8.66;74.42;91838.31;4954852;28;20038;-77
2021/05/16 05:19:54;;;;;;;2.20;1.27;;;;;;;8.85;73.54;91836.41;4969931;28;20604;-76
2021/05/16 05:22:20;;;;;;;3.13;1.33;;;;;;;9.03;72.44;91836.56;4971104;28;20238;-76
2021/05/16 05:24:46;;;;;;;2.30;1.40;;;;;;;9.16;71.99;91830.56;4986229;28;20038;-77
2021/05/16 05:27:11;;;;;;;1.65;1.33;;;;;;;9.30;71.50;91830.53;4990791;28;20084;-76
2021/05/16 05:29:37;;;;;;;1.63;1.20;;;;;;;9.08;73.64;91829.41;4971327;28;20046;-77
2021/05/16 05:32:03;;;;;;;1.90;1.23;;;;;;;8.78;74.88;91837.84;4971618;28;20051;-77
2021/05/16 05:34:29;;;;;;;2.10;1.40;;;;;;;8.88;75.33;91838.41;4970775;28;20035;-77
2021/05/16 05:36:55;;;;;;;2.78;1.70;;;;;;;8.96;74.59;91852.63;4986567;28;20085;-76
2021/05/16 05:39:21;;;;;;;4.85;1.40;;;;;;;9.17;74.22;91853.00;4971265;28;20046;-77
2021/05/16 05:41:46;;;;;;;2.22;1.60;;;;;;;9.33;73.96;91853.47;4971193;28;20037;-77
2021/05/16 05:44:13;;;;;;;2.13;1.40;;;;;;;9.52;73.66;91842.88;4971803;28;20058;-77
2021/05/16 05:46:39;;;;;;;2.28;1.30;;;;;;;9.78;73.12;91843.09;4969023;28;20157;-77
2021/05/16 05:49:05;;;;;;;1.98;1.33;;;;;;;10.02;72.46;91837.56;4973870;28;20058;-77
2021/05/16 05:51:31;;;;;;;1.80;1.20;;;;;;;10.33;71.12;91829.00;4982756;28;20485;-77
2021/05/16 05:53:57;;;;;;;1.50;1.10;;;;;;;10.75;66.39;91819.03;4994368;28;20122;-77
2021/05/16 05:56:22;;;;;;;2.13;1.33;;;;;;;10.89;66.61;91809.22;4972663;28;20113;-77
2021/05/16 05:58:48;;;;;;;2.30;1.20;;;;;;;11.10;66.52;91803.41;4962735;28;20053;-77
2021/05/16 06:01:14;;;;;;;3.08;1.30;;;;;;;12.02;63.63;91813.81;4979335;28;20043;-77
2021/05/16 06:03:39;;;;;;;1.98;1.20;;;;;;;12.02;63.75;91817.22;4977292;28;20046;-77
2021/05/16 06:06:05;;;;;;;2.25;1.40;;;;;;;13.02;61.19;91817.84;4982210;28;20098;-77
2021/05/16 06:08:31;;;;;;;2.45;1.25;;;;;;;13.80;58.02;91810.56;4976666;28;20118;-78
2021/05/16 06:10:56;;;;;;;2.42;1.40;;;;;;;14.51;57.54;91809.59;4976891;28;20042;-77
2021/05/16 06:13:22;;;;;;;1.80;1.30;;;;;;;15.76;53.95;91810.06;4975026;28;20549;-78
2021/05/16 06:15:48;;;;;;;7.03;1.45;;;;;;;16.42;49.12;91806.97;4974441;28;20039;-77
2021/05/16 06:18:14;;;;;;;2.97;1.20;;;;;;;16.85;50.26;91805.41;4990215;28;20053;-77
2021/05/16 06:20:40;;;;;;;1.15;1.00;;;;;;;15.80;51.80;91810.94;4970149;28;20043;-78
2021/05/16 06:23:08;;;;;;;1.83;1.13;;;;;;;15.31;54.46;91829.44;4962598;28;20134;-77
2021/05/16 06:25:33;;;;;;;2.45;1.35;;;;;;;15.13;54.48;91828.91;4978733;28;20034;-77
2021/05/16 06:27:59;;;;;;;3.75;1.40;;;;;;;16.06;52.10;91815.81;4954328;28;20051;-77
2021/05/16 06:30:26;;;;;;;2.85;1.38;;;;;;;15.63;53.68;91840.97;4978353;28;20049;-78
2021/05/16 06:32:51;;;;;;;1.65;1.13;;;;;;;14.46;56.65;91838.78;4984229;28;20089;-76
2021/05/16 06:35:17;;;;;;;4.35;1.40;;;;;;;13.57;60.71;91842.44;4980308;28;20557;-77
2021/05/16 06:37:45;;;;;;;1.80;1.17;;;;;;;13.36;61.08;91842.41;4970273;28;20118;-74
2021/05/16 06:40:11;;;;;;;2.00;1.20;;;;;;;14.55;57.73;91842.13;4951645;28;20340;-76
2021/05/16 06:42:37;;;;;;;2.67;1.17;;;;;;;15.40;56.21;91830.88;4980227;28;20046;-76
2021/05/16 06:45:03;;;;;;;2.25;1.20;;;;;;;16.19;53.55;91835.78;4965252;28;20041;-75
2021/05/16 06:47:29;;;;;;;2.33;1.30;;;;;;;13.74;59.29;91829.16;4978661;28;20509;-75
2021/05/16 06:49:54;;;;;;;2.13;1.20;;;;;;;12.55;64.84;91830.22;4982236;28;20061;-76
2021/05/16 06:52:21;;;;;;;2.03;1.30;;;;;;;11.15;69.41;91832.09;4979280;28;20324;-77
2021/05/16 06:54:48;;;;;;;2.65;1.38;;;;;;;10.95;70.16;91834.19;4977159;28;20098;-76
2021/05/16 06:57:14;;;;;;;3.58;1.40;;;;;;;11.06;69.08;91829.44;4984793;28;20060;-77
2021/05/16 06:59:40;;;;;;;2.15;1.58;;;;;;;11.10;69.64;91825.16;4976347;28;20109;-77
2021/05/16 07:02:06;;;;;;;2.28;1.30;;;;;;;11.70;68.21;91831.53;4974150;28;20125;-77
2021/05/16 07:04:32;;;;;;;1.77;1.30;;;;;;;11.31;68.55;91841.06;4977386;28;20034;-77
2021/05/16 07:06:58;;;;;;;2.55;1.35;;;;;;;11.83;66.64;91851.59;4980398;28;20046;-77
2021/05/16 07:09:24;;;;;;;2.30;1.40;;;;;;;11.91;67.71;91865.03;4978578;28;20113;-79
2021/05/16 07:11:49;;;;;;;3.17;1.38;;;;;;;11.63;68.06;91873.94;4950208;28;20043;-78
2021/05/16 07:14:15;;;;;;;2.10;1.30;;;;;;;12.14;67.23;91866.44;4981183;28;20043;-78
2021/05/16 07:16:41;;;;;;;2.63;1.30;;;;;;;12.51;63.02;91864.19;4954435;28;20524;-79
2021/05/16 07:19:06;;;;;;;2.00;1.05;;;;;;;12.24;63.35;91865.31;4943689;28;20714;-76
2021/05/16 07:21:32;;;;;;;2.08;1.10;;;;;;;12.53;61.77;91863.91;4972468;28;20066;-76
2021/05/16 07:23:58;;;;;;;2.03;1.30;;;;;;;13.11;61.84;91860.59;4969448;28;20046;-77
2021/05/16 07:26:23;;;;;;;1.48;1.00;;;;;;;12.87;60.58;91857.75;4971605;28;20457;-76
2021/05/16 07:28:50;;;;;;;1.48;1.00;;;;;;;13.41;59.96;91858.00;4970279;28;20113;-77
2021/05/16 07:31:16;;;;;;;1.73;1.13;;;;;;;13.21;61.26;91858.69;4986173;28;20527;-77
2021/05/16 07:33:42;;;;;;;1.92;1.20;;;;;;;13.18;60.17;91856.72;4969140;28;20062;-76
2021/05/16 07:36:08;;;;;;;1.90;1.17;;;;;;;12.88;62.18;91857.47;4974437;28;20134;-76
2021/05/16 07:38:35;;;;;;;3.03;1.20;;;;;;;12.08;64.29;91862.41;4975134;28;20485;-77
2021/05/16 07:41:00;;;;;;;1.92;1.20;;;;;;;11.92;65.24;91858.72;4981918;28;20097;-77
2021/05/16 07:43:28;;;;;;;2.15;1.20;;;;;;;12.03;65.42;91858.09;4971861;28;20449;-77
2021/05/16 07:45:54;;;;;;;2.25;1.35;;;;;;;11.73;66.86;91859.78;4958679;28;20051;-77
2021/05/16 07:48:28;;;;;;;1.70;1.27;;;;;;;11.91;65.83;91862.41;4960370;28;20051;-77
2021/05/16 07:50:55;;;;;;;1.10;1.00;;;;;;;12.61;63.82;91879.63;4940501;28;20054;-77
2021/05/16 07:53:21;;;;;;;1.73;1.13;;;;;;;13.19;63.87;91874.78;4953805;28;20133;-76
2021/05/16 07:55:46;;;;;;;1.60;1.10;;;;;;;13.32;59.61;91876.44;4971102;28;20507;-76
2021/05/16 07:58:12;;;;;;;1.13;0.98;;;;;;;13.53;56.99;91886.22;4972816;28;20050;-77
2021/05/16 08:00:37;;;;;;;2.10;0.90;;;;;;;13.91;55.91;91880.09;4966100;28;20062;-77
2021/05/16 08:03:03;;;;;;;2.13;1.00;;;;;;;13.77;57.48;91888.25;4970140;28;20039;-77
2021/05/16 08:05:30;;;;;;;2.88;1.17;;;;;;;12.71;62.36;91889.78;4971223;28;20045;-77
2021/05/16 08:07:56;;;;;;;3.33;1.00;;;;;;;12.54;63.14;91884.59;4954110;28;20109;-76
2021/05/16 08:10:22;;;;;;;2.30;1.20;;;;;;;12.49;62.74;91871.63;4953941;28;20421;-76
2021/05/16 08:12:49;;;;;;;1.35;1.00;;;;;;;12.68;61.74;91866.03;4986997;28;20580;-78
2021/05/16 08:15:15;;;;;;;2.70;1.30;;;;;;;12.96;59.66;91874.25;4971590;28;20074;-77
2021/05/16 08:17:40;;;;;;;2.08;1.10;;;;;;;12.89;61.06;91868.72;4970629;28;20065;-78
2021/05/16 08:20:07;;;;;;;2.50;1.23;;;;;;;13.13;61.16;91870.81;4950736;28;20051;-77
2021/05/16 08:22:33;;;;;;;2.33;1.00;;;;;;;13.45;59.96;91858.16;4969672;28;20453;-77
2021/05/16 08:24:59;;;;;;;3.03;1.30;;;;;;;13.25;61.48;91851.72;4972252;28;20043;-76
2021/05/16 08:27:25;;;;;;;1.30;1.00;;;;;;;13.51;61.33;91852.38;4971967;28;20050;-76
2021/05/16 08:29:51;;;;;;;1.65;1.15;;;;;;;13.30;60.44;91856.81;4971591;28;20489;-77
2021/05/16 08:32:16;;;;;;;3.47;1.10;;;;;;;13.39;59.53;91854.91;4963905;28;20034;-77
2021/05/16 08:34:42;;;;;;;2.08;1.20;;;;;;;12.95;61.44;91854.34;4990901;28;20101;-77
2021/05/16 08:37:10;;;;;;;1.52;0.90;;;;;;;13.21;59.71;91856.06;4986658;28;20142;-77
2021/05/16 08:39:36;;;;;;;1.65;1.00;;;;;;;13.34;58.84;91852.47;4971715;28;20053;-77
2021/05/16 08:42:02;;;;;;;2.08;1.00;;;;;;;12.53;60.28;91835.78;4958087;28;20369;-77
2021/05/16 08:44:31;;;;;;;1.60;1.00;;;;;;;12.91;59.81;91858.69;4990972;28;20041;-77
2021/05/16 08:46:58;;;;;;;1.75;1.20;;;;;;;12.91;59.12;91851.56;4975290;28;20065;-77
2021/05/16 08:49:24;;;;;;;1.50;1.02;;;;;;;12.99;60.53;91855.25;4962157;28;20368;-77
2021/05/16 08:51:50;;;;;;;3.03;1.30;;;;;;;13.03;60.57;91863.25;4941752;28;20416;-77
2021/05/16 08:54:17;;;;;;;2.05;1.20;;;;;;;13.52;60.07;91853.91;4954422;28;20038;-77
2021/05/16 08:56:46;;;;;;;2.30;1.20;;;;;;;13.08;58.97;91863.88;4971157;28;20043;-76
2021/05/16 08:59:13;;;;;;;2.83;1.17;;;;;;;13.30;59.32;91851.56;4971778;28;20097;-76
2021/05/16 09:01:50;;;;;;;2.33;1.10;;;;;;;12.86;59.87;91857.00;4936813;29;20054;-76
2021/05/16 09:04:27;;;;;;;2.20;1.20;;;;;;;13.52;58.42;91866.28;4962566;28;20129;-76
2021/05/16 09:06:55;;;;;;;1.38;0.95;;;;;;;13.43;58.59;91868.19;4957148;28;20501;-77
2021/05/16 09:09:36;;;;;;;2.10;1.13;;;;;;;13.04;60.27;91859.56;4970832;28;20062;-77
2021/05/16 09:12:14;;;;;;;1.17;1.00;;;;;;;13.31;59.52;91859.16;4969580;28;20486;-77
2021/05/16 09:14:52;;;;;;;2.80;1.10;;;;;;;13.88;58.08;91873.63;4969556;28;20050;-76
2021/05/16 09:17:36;;;;;;;1.42;0.90;;;;;;;13.64;58.97;91884.00;4969367;28;20521;-77
2021/05/16 09:20:05;;;;;;;1.45;1.00;;;;;;;13.74;58.94;91881.78;4966449;28;20501;-78
2021/05/16 09:22:42;;;;;;;1.17;0.90;;;;;;;13.66;56.88;91879.19;4968409;28;20055;-77
2021/05/16 09:25:09;;;;;;;1.42;0.95;;;;;;;13.52;59.18;91874.94;4984272;28;20075;-78
2021/05/16 09:27:36;;;;;;;2.60;1.30;;;;;;;13.40;58.44;91877.50;4966865;28;20125;-77
2021/05/16 09:30:23;;;;;;;1.65;1.10;;;;;;;13.40;59.10;91888.00;4982200;28;20042;-77
2021/05/16 09:33:01;;;;;;;3.25;1.27;;;;;;;13.61;60.20;91877.53;4976123;28;20125;-78
2021/05/16 09:35:38;;;;;;;1.02;0.90;;;;;;;13.61;58.12;91882.03;4951916;28;20616;-78
2021/05/16 09:38:15;;;;;;;1.30;1.00;;;;;;;13.40;58.54;91874.88;4969675;28;20047;-78
2021/05/16 09:41:03;;;;;;;2.53;1.00;;;;;;;13.47;60.46;91869.13;4953347;28;20050;-78
2021/05/16 09:43:31;;;;;;;1.75;1.10;;;;;;;13.07;59.38;91867.56;4972193;28;20456;-77
2021/05/16 09:46:07;;;;;;;1.45;1.15;;;;;;;13.59;60.02;91873.69;4963165;28;20059;-77
2021/05/16 09:48:41;;;;;;;2.10;1.20;;;;;;;13.53;57.94;91870.44;4950592;28;20047;-78
2021/05/16 09:51:22;;;;;;;1.65;1.00;;;;;;;13.70;58.49;91874.84;4951141;28;20047;-78
2021/05/16 09:53:49;;;;;;;3.28;1.20;;;;;;;13.69;60.77;91881.97;4949511;28;20039;-78
2021/05/16 09:56:17;;;;;;;3.03;1.30;;;;;;;13.99;58.54;91881.16;4948012;28;20067;-78
2021/05/16 09:58:43;;;;;;;2.40;1.25;;;;;;;13.04;59.87;91876.09;4932630;29;20055;-77
2021/05/16 10:01:09;;;;;;;3.35;1.27;;;;;;;13.64;60.80;91870.84;4949084;28;20041;-77
2021/05/16 10:03:36;;;;;;;3.13;1.23;;;;;;;13.72;58.08;91868.16;4956132;28;20043;-78
2021/05/16 10:06:02;;;;;;;2.47;1.05;;;;;;;14.00;57.22;91862.41;4930444;29;20039;-78
2021/05/16 10:08:30;;;;;;;3.97;1.17;;;;;;;13.87;57.44;91864.22;4966516;28;22106;-78
2021/05/16 10:10:56;;;;;;;2.67;1.10;;;;;;;13.84;56.92;91859.56;4963646;28;20046;-78
2021/05/16 10:13:24;;;;;;;2.15;1.20;;;;;;;13.29;56.23;91866.56;4960710;28;20048;-77
2021/05/16 10:15:51;;;;;;;3.42;1.25;;;;;;;13.39;54.89;91875.94;4951027;29;20054;-77
2021/05/16 10:18:19;;;;;;;2.38;1.08;;;;;;;13.83;57.17;91865.94;4952105;28;20112;-78
2021/05/16 10:20:45;;;;;;;2.28;1.20;;;;;;;14.07;56.56;91867.94;4933772;29;20130;-78
2021/05/16 10:23:11;;;;;;;1.88;1.10;;;;;;;13.85;57.70;91866.38;4956601;28;20109;-78
2021/05/16 10:25:42;;;;;;;2.45;1.20;;;;;;;13.49;57.49;91859.06;4952293;28;20150;-78
2021/05/16 10:28:13;;;;;;;2.15;1.20;;;;;;;14.08;55.12;91864.19;4930647;29;20044;-77
2021/05/16 10:30:41;;;;;;;2.92;1.20;;;;;;;13.84;56.76;91858.81;4942912;28;20050;-77
2021/05/16 10:33:07;;;;;;;4.18;1.40;;;;;;;13.74;56.45;91867.84;4933166;29;20043;-77
2021/05/16 10:35:51;;;;;;;3.28;1.27;;;;;;;14.27;56.03;91866.34;4948612;28;20520;-77
2021/05/16 10:38:37;;;;;;;2.80;1.50;;;;;;;13.78;56.66;91862.72;4954165;28;20047;-76
2021/05/16 10:41:19;;;;;;;1.80;1.10;;;;;;;13.91;55.48;91859.06;4954116;29;20211;-79
2021/05/16 10:43:46;;;;;;;2.25;1.20;;;;;;;14.22;55.65;91850.75;4953032;29;20461;-79
2021/05/16 10:46:42;;;;;;;1.80;1.20;;;;;;;14.70;54.04;91845.97;4937192;29;20058;-78
2021/05/16 10:49:52;;;;;;;3.95;1.73;;;;;;;15.06;53.02;91839.97;4969177;28;20050;-78
2021/05/16 10:52:28;;;;;;;2.28;1.10;;;;;;;14.90;53.52;91841.75;4967898;28;20042;-78
2021/05/16 10:54:54;;;;;;;2.08;1.48;;;;;;;14.75;55.21;91841.28;4976022;28;20449;-78
2021/05/16 10:57:24;;;;;;;4.20;1.30;;;;;;;14.50;54.43;91845.72;4972863;28;20116;-78
2021/05/16 10:59:50;;;;;;;3.30;1.23;;;;;;;14.73;55.25;91838.22;4973730;28;20074;-78
2021/05/16 11:02:53;;;;;;;3.33;1.33;;;;;;;14.67;56.76;91846.66;4985761;28;20133;-78
2021/05/16 11:05:50;;;;;;;2.80;1.20;;;;;;;14.35;56.90;91839.19;4969073;28;20043;-78
2021/05/16 11:08:18;;;;;;;3.35;1.30;;;;;;;14.02;57.70;91838.41;4969033;28;20050;-78
2021/05/16 11:10:49;;;;;;;2.17;1.20;;;;;;;14.23;56.92;91844.41;4973371;28;20450;-78
2021/05/16 11:13:20;;;;;;;2.60;1.35;;;;;;;14.03;58.01;91847.84;4973498;28;20061;-78
2021/05/16 11:15:54;;;;;;;2.60;1.40;;;;;;;14.46;54.90;91841.41;4972135;28;20479;-78
2021/05/16 11:18:22;;;;;;;3.70;1.52;;;;;;;14.42;56.04;91846.56;4971416;28;20039;-78
2021/05/16 11:20:54;;;;;;;4.03;1.42;;;;;;;14.09;56.99;91834.16;4975280;28;20042;-78
2021/05/16 11:23:24;;;;;;;2.40;1.40;;;;;;;13.89;57.50;91846.25;4973665;28;20141;-78
2021/05/16 11:26:05;;;;;;;2.38;1.48;;;;;;;14.43;57.04;91836.78;4966036;28;20130;-78
2021/05/16 11:28:36;;;;;;;3.78;1.50;;;;;;;13.91;56.70;91838.78;4975844;28;20038;-78
2021/05/16 11:31:12;;;;;;;2.85;1.38;;;;;;;14.51;56.70;91846.47;4990576;28;20432;-78
2021/05/16 11:33:39;;;;;;;4.75;1.75;;;;;;;14.46;56.82;91851.94;4979050;28;20129;-78
2021/05/16 11:36:10;;;;;;;4.45;1.50;;;;;;;14.85;56.82;91844.59;4966431;28;20055;-78
2021/05/16 11:38:39;;;;;;;4.88;1.60;;;;;;;14.61;56.18;91840.03;4988276;28;20599;-78
2021/05/16 11:41:06;;;;;;;3.67;1.60;;;;;;;15.17;56.12;91838.44;4975460;28;20049;-78
2021/05/16 11:43:34;;;;;;;2.45;1.40;;;;;;;14.57;55.38;91839.94;4984902;28;20055;-78